sensor_id;sensor_type;location;lat;lon;timestamp;P1;durP1;ratioP1;P2;durP2;ratioP2
22449;SDS011;11392;57.390;-2.468;2023-04-08T00:01:15;55.17;;;27.75;;
22449;SDS011;11392;57.390;-2.468;2023-04-08T00:03:42;50.20;;;25.60;;
22449;SDS011;11392;57.390;-2.468;2023-04-08T00:06:10;49.75;;;27.00;;
22449;SDS011;11392;57.390;-2.468;2023-04-08T00:08:37;50.00;;;26.60;;
22449;SDS011;11392;57.390;-2.468;2023-04-08T00:11:05;52.88;;;28.02;;
22449;SDS011;11392;57.390;-2.468;2023-04-08T00:13:31;70.05;;;30.55;;
22449;SDS011;11392;57.390;-2.468;2023-04-08T00:15:58;53.22;;;30.13;;
22449;SDS011;11392;57.390;-2.468;2023-04-08T00:18:26;56.72;;;28.65;;
22449;SDS011;11392;57.390;-2.468;2023-04-08T00:20:53;52.15;;;28.67;;
22449;SDS011;11392;57.390;-2.468;2023-04-08T00:23:22;59.83;;;29.42;;
22449;SDS011;11392;57.390;-2.468;2023-04-08T00:25:49;48.85;;;27.52;;
22449;SDS011;11392;57.390;-2.468;2023-04-08T00:28:16;63.65;;;31.40;;
22449;SDS011;11392;57.390;-2.468;2023-04-08T00:30:43;49.88;;;27.02;;
22449;SDS011;11392;57.390;-2.468;2023-04-08T00:33:11;53.58;;;28.67;;
22449;SDS011;11392;57.390;-2.468;2023-04-08T00:35:38;54.35;;;26.75;;
22449;SDS011;11392;57.390;-2.468;2023-04-08T00:38:05;49.72;;;28.05;;
22449;SDS011;11392;57.390;-2.468;2023-04-08T00:40:33;59.15;;;28.70;;
22449;SDS011;11392;57.390;-2.468;2023-04-08T00:43:01;54.20;;;29.08;;
22449;SDS011;11392;57.390;-2.468;2023-04-08T00:45:27;57.17;;;29.13;;
22449;SDS011;11392;57.390;-2.468;2023-04-08T00:47:55;51.00;;;28.08;;
22449;SDS011;11392;57.390;-2.468;2023-04-08T00:50:22;57.38;;;28.13;;
22449;SDS011;11392;57.390;-2.468;2023-04-08T00:52:49;43.80;;;25.67;;
22449;SDS011;11392;57.390;-2.468;2023-04-08T00:55:16;41.72;;;23.90;;
22449;SDS011;11392;57.390;-2.468;2023-04-08T00:57:43;42.92;;;26.70;;
22449;SDS011;11392;57.390;-2.468;2023-04-08T01:00:11;33.58;;;21.25;;
22449;SDS011;11392;57.390;-2.468;2023-04-08T01:05:53;49.50;;;25.52;;
22449;SDS011;11392;57.390;-2.468;2023-04-08T01:08:29;45.85;;;24.92;;
22449;SDS011;11392;57.390;-2.468;2023-04-08T01:10:59;47.92;;;25.17;;
22449;SDS011;11392;57.390;-2.468;2023-04-08T01:13:29;55.72;;;29.17;;
22449;SDS011;11392;57.390;-2.468;2023-04-08T01:16:01;46.10;;;25.33;;
22449;SDS011;11392;57.390;-2.468;2023-04-08T01:18:28;52.15;;;27.63;;
22449;SDS011;11392;57.390;-2.468;2023-04-08T01:20:56;47.28;;;26.50;;
22449;SDS011;11392;57.390;-2.468;2023-04-08T01:26:03;44.78;;;28.02;;
22449;SDS011;11392;57.390;-2.468;2023-04-08T01:28:30;41.35;;;26.20;;
22449;SDS011;11392;57.390;-2.468;2023-04-08T01:30:59;47.78;;;28.33;;
22449;SDS011;11392;57.390;-2.468;2023-04-08T01:33:27;52.63;;;29.60;;
22449;SDS011;11392;57.390;-2.468;2023-04-08T01:35:55;49.08;;;26.75;;
22449;SDS011;11392;57.390;-2.468;2023-04-08T01:38:24;48.05;;;26.90;;
22449;SDS011;11392;57.390;-2.468;2023-04-08T01:40:53;44.10;;;26.95;;
22449;SDS011;11392;57.390;-2.468;2023-04-08T01:43:22;38.95;;;23.13;;
22449;SDS011;11392;57.390;-2.468;2023-04-08T01:45:51;35.67;;;23.63;;
22449;SDS011;11392;57.390;-2.468;2023-04-08T01:48:24;42.45;;;26.25;;
22449;SDS011;11392;57.390;-2.468;2023-04-08T01:50:51;39.13;;;23.48;;
22449;SDS011;11392;57.390;-2.468;2023-04-08T01:53:20;38.85;;;25.73;;
22449;SDS011;11392;57.390;-2.468;2023-04-08T01:55:48;48.15;;;27.80;;
22449;SDS011;11392;57.390;-2.468;2023-04-08T01:58:20;41.53;;;25.00;;
22449;SDS011;11392;57.390;-2.468;2023-04-08T02:00:50;49.70;;;28.58;;
22449;SDS011;11392;57.390;-2.468;2023-04-08T02:03:21;54.63;;;29.75;;
22449;SDS011;11392;57.390;-2.468;2023-04-08T02:05:51;47.88;;;27.60;;
22449;SDS011;11392;57.390;-2.468;2023-04-08T02:08:18;53.67;;;30.63;;
22449;SDS011;11392;57.390;-2.468;2023-04-08T02:10:45;69.57;;;32.80;;
22449;SDS011;11392;57.390;-2.468;2023-04-08T02:13:12;62.35;;;32.60;;
22449;SDS011;11392;57.390;-2.468;2023-04-08T02:15:41;54.20;;;31.02;;
22449;SDS011;11392;57.390;-2.468;2023-04-08T02:18:16;51.45;;;31.02;;
22449;SDS011;11392;57.390;-2.468;2023-04-08T02:20:52;50.95;;;32.72;;
22449;SDS011;11392;57.390;-2.468;2023-04-08T02:23:28;56.75;;;32.45;;
22449;SDS011;11392;57.390;-2.468;2023-04-08T02:25:59;63.83;;;33.50;;
22449;SDS011;11392;57.390;-2.468;2023-04-08T02:28:30;59.03;;;33.35;;
22449;SDS011;11392;57.390;-2.468;2023-04-08T02:30:59;49.28;;;30.50;;
22449;SDS011;11392;57.390;-2.468;2023-04-08T02:33:28;54.67;;;32.90;;
22449;SDS011;11392;57.390;-2.468;2023-04-08T02:35:55;66.10;;;33.25;;
22449;SDS011;11392;57.390;-2.468;2023-04-08T02:38:23;62.88;;;33.95;;
22449;SDS011;11392;57.390;-2.468;2023-04-08T02:40:55;51.10;;;31.70;;
22449;SDS011;11392;57.390;-2.468;2023-04-08T02:43:22;50.38;;;30.95;;
22449;SDS011;11392;57.390;-2.468;2023-04-08T02:45:58;45.55;;;29.88;;
22449;SDS011;11392;57.390;-2.468;2023-04-08T02:48:29;46.30;;;27.52;;
22449;SDS011;11392;57.390;-2.468;2023-04-08T02:50:57;57.78;;;31.23;;
22449;SDS011;11392;57.390;-2.468;2023-04-08T02:53:24;41.40;;;26.52;;
22449;SDS011;11392;57.390;-2.468;2023-04-08T02:55:51;46.20;;;27.40;;
22449;SDS011;11392;57.390;-2.468;2023-04-08T02:58:18;40.90;;;26.10;;
22449;SDS011;11392;57.390;-2.468;2023-04-08T03:00:45;43.25;;;25.60;;
22449;SDS011;11392;57.390;-2.468;2023-04-08T03:03:13;38.75;;;25.67;;
22449;SDS011;11392;57.390;-2.468;2023-04-08T03:05:40;39.47;;;25.55;;
22449;SDS011;11392;57.390;-2.468;2023-04-08T03:08:07;55.35;;;28.48;;
22449;SDS011;11392;57.390;-2.468;2023-04-08T03:10:34;38.60;;;25.60;;
22449;SDS011;11392;57.390;-2.468;2023-04-08T03:13:01;37.15;;;24.73;;
22449;SDS011;11392;57.390;-2.468;2023-04-08T03:15:28;40.38;;;25.23;;
22449;SDS011;11392;57.390;-2.468;2023-04-08T03:17:55;43.28;;;25.75;;
22449;SDS011;11392;57.390;-2.468;2023-04-08T03:20:22;39.72;;;24.80;;
22449;SDS011;11392;57.390;-2.468;2023-04-08T03:22:49;39.53;;;26.27;;
22449;SDS011;11392;57.390;-2.468;2023-04-08T03:25:16;46.70;;;24.75;;
22449;SDS011;11392;57.390;-2.468;2023-04-08T03:27:43;44.80;;;26.88;;
22449;SDS011;11392;57.390;-2.468;2023-04-08T03:30:11;43.72;;;27.25;;
22449;SDS011;11392;57.390;-2.468;2023-04-08T03:32:38;37.40;;;26.42;;
22449;SDS011;11392;57.390;-2.468;2023-04-08T03:35:06;46.47;;;28.75;;
22449;SDS011;11392;57.390;-2.468;2023-04-08T03:37:33;46.42;;;26.85;;
22449;SDS011;11392;57.390;-2.468;2023-04-08T03:40:00;35.90;;;23.33;;
22449;SDS011;11392;57.390;-2.468;2023-04-08T03:42:28;43.75;;;26.55;;
22449;SDS011;11392;57.390;-2.468;2023-04-08T03:44:55;42.88;;;25.65;;
22449;SDS011;11392;57.390;-2.468;2023-04-08T03:47:23;44.17;;;25.23;;
22449;SDS011;11392;57.390;-2.468;2023-04-08T03:49:53;43.38;;;25.98;;
22449;SDS011;11392;57.390;-2.468;2023-04-08T03:52:22;47.00;;;27.92;;
22449;SDS011;11392;57.390;-2.468;2023-04-08T03:54:50;47.88;;;27.70;;
22449;SDS011;11392;57.390;-2.468;2023-04-08T03:57:17;43.92;;;27.33;;
22449;SDS011;11392;57.390;-2.468;2023-04-08T03:59:44;41.58;;;26.50;;
22449;SDS011;11392;57.390;-2.468;2023-04-08T04:02:11;38.35;;;26.85;;
22449;SDS011;11392;57.390;-2.468;2023-04-08T04:04:38;49.08;;;27.65;;
22449;SDS011;11392;57.390;-2.468;2023-04-08T04:07:05;38.80;;;26.10;;
22449;SDS011;11392;57.390;-2.468;2023-04-08T04:09:33;46.17;;;26.27;;
22449;SDS011;11392;57.390;-2.468;2023-04-08T04:12:00;41.83;;;26.45;;
22449;SDS011;11392;57.390;-2.468;2023-04-08T04:14:27;39.30;;;26.08;;
22449;SDS011;11392;57.390;-2.468;2023-04-08T04:16:54;39.72;;;26.00;;
22449;SDS011;11392;57.390;-2.468;2023-04-08T04:19:21;39.83;;;25.42;;
22449;SDS011;11392;57.390;-2.468;2023-04-08T04:21:48;43.58;;;25.85;;
22449;SDS011;11392;57.390;-2.468;2023-04-08T04:24:15;32.92;;;23.45;;
22449;SDS011;11392;57.390;-2.468;2023-04-08T04:26:42;40.55;;;25.05;;
22449;SDS011;11392;57.390;-2.468;2023-04-08T04:29:09;34.40;;;24.20;;
22449;SDS011;11392;57.390;-2.468;2023-04-08T04:31:36;38.85;;;24.05;;
22449;SDS011;11392;57.390;-2.468;2023-04-08T04:34:04;40.33;;;26.40;;
22449;SDS011;11392;57.390;-2.468;2023-04-08T04:36:31;40.92;;;25.98;;
22449;SDS011;11392;57.390;-2.468;2023-04-08T04:38:58;43.42;;;26.48;;
22449;SDS011;11392;57.390;-2.468;2023-04-08T04:41:25;35.90;;;24.77;;
22449;SDS011;11392;57.390;-2.468;2023-04-08T04:43:52;35.33;;;23.58;;
22449;SDS011;11392;57.390;-2.468;2023-04-08T04:46:19;36.78;;;24.17;;
22449;SDS011;11392;57.390;-2.468;2023-04-08T04:48:47;41.60;;;26.60;;
22449;SDS011;11392;57.390;-2.468;2023-04-08T04:51:15;37.70;;;23.83;;
22449;SDS011;11392;57.390;-2.468;2023-04-08T04:53:42;42.50;;;25.73;;
22449;SDS011;11392;57.390;-2.468;2023-04-08T04:56:09;44.08;;;26.23;;
22449;SDS011;11392;57.390;-2.468;2023-04-08T04:58:36;36.65;;;24.75;;
22449;SDS011;11392;57.390;-2.468;2023-04-08T05:01:03;40.88;;;24.00;;
22449;SDS011;11392;57.390;-2.468;2023-04-08T05:03:30;41.35;;;25.25;;
22449;SDS011;11392;57.390;-2.468;2023-04-08T05:05:57;42.22;;;22.00;;
22449;SDS011;11392;57.390;-2.468;2023-04-08T05:08:24;47.28;;;22.90;;
22449;SDS011;11392;57.390;-2.468;2023-04-08T05:10:53;35.47;;;21.38;;
22449;SDS011;11392;57.390;-2.468;2023-04-08T05:13:21;34.35;;;20.10;;
22449;SDS011;11392;57.390;-2.468;2023-04-08T05:15:48;36.20;;;21.23;;
22449;SDS011;11392;57.390;-2.468;2023-04-08T05:18:16;34.80;;;19.90;;
22449;SDS011;11392;57.390;-2.468;2023-04-08T05:20:43;33.17;;;19.67;;
22449;SDS011;11392;57.390;-2.468;2023-04-08T05:23:09;33.40;;;18.35;;
22449;SDS011;11392;57.390;-2.468;2023-04-08T05:25:37;28.50;;;17.80;;
22449;SDS011;11392;57.390;-2.468;2023-04-08T05:28:04;30.88;;;18.23;;
22449;SDS011;11392;57.390;-2.468;2023-04-08T05:30:31;31.48;;;17.48;;
22449;SDS011;11392;57.390;-2.468;2023-04-08T05:32:58;28.90;;;16.05;;
22449;SDS011;11392;57.390;-2.468;2023-04-08T05:35:26;33.05;;;16.13;;
22449;SDS011;11392;57.390;-2.468;2023-04-08T05:37:54;29.13;;;14.32;;
22449;SDS011;11392;57.390;-2.468;2023-04-08T05:40:21;34.00;;;16.33;;
22449;SDS011;11392;57.390;-2.468;2023-04-08T05:42:48;33.58;;;15.68;;
22449;SDS011;11392;57.390;-2.468;2023-04-08T05:45:16;38.67;;;17.42;;
22449;SDS011;11392;57.390;-2.468;2023-04-08T05:47:43;26.98;;;15.52;;
22449;SDS011;11392;57.390;-2.468;2023-04-08T05:50:10;32.88;;;14.55;;
22449;SDS011;11392;57.390;-2.468;2023-04-08T05:52:41;36.42;;;17.83;;
22449;SDS011;11392;57.390;-2.468;2023-04-08T05:55:10;27.58;;;15.00;;
22449;SDS011;11392;57.390;-2.468;2023-04-08T05:57:38;27.90;;;14.38;;
22449;SDS011;11392;57.390;-2.468;2023-04-08T06:00:06;28.02;;;14.88;;
22449;SDS011;11392;57.390;-2.468;2023-04-08T06:02:35;27.95;;;14.73;;
22449;SDS011;11392;57.390;-2.468;2023-04-08T06:05:03;42.55;;;17.63;;
22449;SDS011;11392;57.390;-2.468;2023-04-08T06:07:31;32.85;;;16.08;;
22449;SDS011;11392;57.390;-2.468;2023-04-08T06:09:59;29.88;;;14.52;;
22449;SDS011;11392;57.390;-2.468;2023-04-08T06:12:26;33.58;;;16.80;;
22449;SDS011;11392;57.390;-2.468;2023-04-08T06:14:54;26.48;;;14.07;;
22449;SDS011;11392;57.390;-2.468;2023-04-08T06:17:22;29.77;;;13.57;;
22449;SDS011;11392;57.390;-2.468;2023-04-08T06:19:49;30.55;;;15.20;;
22449;SDS011;11392;57.390;-2.468;2023-04-08T06:22:16;29.73;;;15.45;;
22449;SDS011;11392;57.390;-2.468;2023-04-08T06:24:43;41.88;;;17.85;;
22449;SDS011;11392;57.390;-2.468;2023-04-08T06:27:12;35.70;;;17.23;;
22449;SDS011;11392;57.390;-2.468;2023-04-08T06:29:39;31.10;;;15.30;;
22449;SDS011;11392;57.390;-2.468;2023-04-08T06:32:08;34.33;;;14.73;;
22449;SDS011;11392;57.390;-2.468;2023-04-08T06:34:35;26.40;;;14.25;;
22449;SDS011;11392;57.390;-2.468;2023-04-08T06:37:03;30.40;;;13.73;;
22449;SDS011;11392;57.390;-2.468;2023-04-08T06:39:31;29.38;;;14.32;;
22449;SDS011;11392;57.390;-2.468;2023-04-08T06:41:59;21.40;;;13.30;;
22449;SDS011;11392;57.390;-2.468;2023-04-08T06:44:26;23.00;;;14.43;;
22449;SDS011;11392;57.390;-2.468;2023-04-08T06:46:53;29.05;;;14.95;;
22449;SDS011;11392;57.390;-2.468;2023-04-08T06:49:21;37.28;;;15.80;;
22449;SDS011;11392;57.390;-2.468;2023-04-08T06:51:48;37.92;;;15.70;;
22449;SDS011;11392;57.390;-2.468;2023-04-08T06:54:15;30.60;;;14.52;;
22449;SDS011;11392;57.390;-2.468;2023-04-08T06:56:42;31.48;;;15.75;;
22449;SDS011;11392;57.390;-2.468;2023-04-08T06:59:10;24.05;;;13.30;;
22449;SDS011;11392;57.390;-2.468;2023-04-08T07:01:37;25.85;;;14.10;;
22449;SDS011;11392;57.390;-2.468;2023-04-08T07:04:04;31.10;;;15.00;;
22449;SDS011;11392;57.390;-2.468;2023-04-08T07:06:31;29.98;;;15.77;;
22449;SDS011;11392;57.390;-2.468;2023-04-08T07:08:59;27.58;;;14.55;;
22449;SDS011;11392;57.390;-2.468;2023-04-08T07:11:26;27.42;;;15.00;;
22449;SDS011;11392;57.390;-2.468;2023-04-08T07:13:53;29.88;;;14.48;;
22449;SDS011;11392;57.390;-2.468;2023-04-08T07:16:20;22.33;;;13.73;;
22449;SDS011;11392;57.390;-2.468;2023-04-08T07:18:47;25.90;;;15.20;;
22449;SDS011;11392;57.390;-2.468;2023-04-08T07:21:14;29.20;;;13.88;;
22449;SDS011;11392;57.390;-2.468;2023-04-08T07:23:41;26.10;;;13.90;;
22449;SDS011;11392;57.390;-2.468;2023-04-08T07:26:08;23.35;;;13.15;;
22449;SDS011;11392;57.390;-2.468;2023-04-08T07:28:35;28.70;;;15.05;;
22449;SDS011;11392;57.390;-2.468;2023-04-08T07:31:13;25.30;;;13.77;;
22449;SDS011;11392;57.390;-2.468;2023-04-08T07:33:42;25.67;;;14.05;;
22449;SDS011;11392;57.390;-2.468;2023-04-08T07:36:11;30.70;;;15.93;;
22449;SDS011;11392;57.390;-2.468;2023-04-08T07:38:39;29.48;;;15.52;;
22449;SDS011;11392;57.390;-2.468;2023-04-08T07:41:07;30.67;;;15.88;;
22449;SDS011;11392;57.390;-2.468;2023-04-08T07:43:34;24.30;;;13.20;;
22449;SDS011;11392;57.390;-2.468;2023-04-08T07:46:03;24.88;;;14.18;;
22449;SDS011;11392;57.390;-2.468;2023-04-08T07:48:31;22.65;;;12.93;;
22449;SDS011;11392;57.390;-2.468;2023-04-08T07:51:03;29.52;;;15.05;;
22449;SDS011;11392;57.390;-2.468;2023-04-08T07:53:36;23.33;;;14.57;;
22449;SDS011;11392;57.390;-2.468;2023-04-08T07:56:08;24.90;;;13.43;;
22449;SDS011;11392;57.390;-2.468;2023-04-08T07:58:40;25.10;;;14.30;;
22449;SDS011;11392;57.390;-2.468;2023-04-08T08:01:18;25.20;;;15.07;;
22449;SDS011;11392;57.390;-2.468;2023-04-08T08:03:47;28.95;;;14.13;;
22449;SDS011;11392;57.390;-2.468;2023-04-08T08:06:18;24.63;;;13.50;;
22449;SDS011;11392;57.390;-2.468;2023-04-08T08:08:46;31.05;;;15.18;;
22449;SDS011;11392;57.390;-2.468;2023-04-08T08:11:13;25.20;;;13.23;;
22449;SDS011;11392;57.390;-2.468;2023-04-08T08:13:40;25.65;;;14.25;;
22449;SDS011;11392;57.390;-2.468;2023-04-08T08:16:07;38.53;;;15.80;;
22449;SDS011;11392;57.390;-2.468;2023-04-08T08:18:37;25.98;;;13.05;;
22449;SDS011;11392;57.390;-2.468;2023-04-08T08:21:06;26.05;;;12.68;;
22449;SDS011;11392;57.390;-2.468;2023-04-08T08:23:33;21.60;;;12.07;;
22449;SDS011;11392;57.390;-2.468;2023-04-08T08:26:01;25.88;;;12.55;;
22449;SDS011;11392;57.390;-2.468;2023-04-08T08:28:29;27.48;;;12.60;;
22449;SDS011;11392;57.390;-2.468;2023-04-08T08:30:56;25.40;;;11.73;;
22449;SDS011;11392;57.390;-2.468;2023-04-08T08:33:24;25.30;;;11.63;;
22449;SDS011;11392;57.390;-2.468;2023-04-08T08:35:51;20.20;;;10.43;;
22449;SDS011;11392;57.390;-2.468;2023-04-08T08:38:19;26.40;;;11.20;;
22449;SDS011;11392;57.390;-2.468;2023-04-08T08:40:46;30.48;;;11.48;;
22449;SDS011;11392;57.390;-2.468;2023-04-08T08:43:24;20.15;;;9.85;;
22449;SDS011;11392;57.390;-2.468;2023-04-08T08:45:54;23.75;;;10.52;;
22449;SDS011;11392;57.390;-2.468;2023-04-08T08:48:21;25.20;;;10.52;;
22449;SDS011;11392;57.390;-2.468;2023-04-08T08:50:48;20.65;;;10.48;;
22449;SDS011;11392;57.390;-2.468;2023-04-08T08:53:15;20.92;;;10.30;;
22449;SDS011;11392;57.390;-2.468;2023-04-08T08:55:42;22.92;;;11.75;;
22449;SDS011;11392;57.390;-2.468;2023-04-08T08:58:30;31.73;;;13.30;;
22449;SDS011;11392;57.390;-2.468;2023-04-08T09:00:57;19.98;;;10.23;;
22449;SDS011;11392;57.390;-2.468;2023-04-08T09:03:25;20.00;;;10.27;;
22449;SDS011;11392;57.390;-2.468;2023-04-08T09:05:54;22.83;;;10.35;;
22449;SDS011;11392;57.390;-2.468;2023-04-08T09:11:16;20.17;;;10.02;;
22449;SDS011;11392;57.390;-2.468;2023-04-08T09:13:45;26.23;;;11.98;;
22449;SDS011;11392;57.390;-2.468;2023-04-08T09:16:13;23.63;;;10.77;;
22449;SDS011;11392;57.390;-2.468;2023-04-08T09:18:43;22.60;;;10.45;;
22449;SDS011;11392;57.390;-2.468;2023-04-08T09:21:13;16.60;;;9.50;;
22449;SDS011;11392;57.390;-2.468;2023-04-08T09:23:48;17.42;;;8.48;;
22449;SDS011;11392;57.390;-2.468;2023-04-08T09:26:21;27.38;;;10.60;;
22449;SDS011;11392;57.390;-2.468;2023-04-08T09:29:02;31.80;;;11.05;;
22449;SDS011;11392;57.390;-2.468;2023-04-08T09:31:57;22.17;;;10.77;;
22449;SDS011;11392;57.390;-2.468;2023-04-08T09:34:26;20.13;;;9.80;;
22449;SDS011;11392;57.390;-2.468;2023-04-08T09:36:55;28.90;;;10.77;;
22449;SDS011;11392;57.390;-2.468;2023-04-08T09:39:22;22.90;;;9.40;;
22449;SDS011;11392;57.390;-2.468;2023-04-08T09:41:49;25.48;;;10.07;;
22449;SDS011;11392;57.390;-2.468;2023-04-08T09:44:18;24.40;;;9.80;;
22449;SDS011;11392;57.390;-2.468;2023-04-08T09:51:53;18.15;;;9.95;;
22449;SDS011;11392;57.390;-2.468;2023-04-08T09:54:40;23.50;;;9.82;;
22449;SDS011;11392;57.390;-2.468;2023-04-08T10:00:09;18.27;;;9.80;;
22449;SDS011;11392;57.390;-2.468;2023-04-08T10:02:48;21.33;;;9.90;;
22449;SDS011;11392;57.390;-2.468;2023-04-08T10:05:37;25.63;;;10.10;;
22449;SDS011;11392;57.390;-2.468;2023-04-08T10:08:06;22.33;;;11.13;;
22449;SDS011;11392;57.390;-2.468;2023-04-08T10:10:34;17.80;;;10.30;;
22449;SDS011;11392;57.390;-2.468;2023-04-08T10:13:04;21.48;;;10.23;;
22449;SDS011;11392;57.390;-2.468;2023-04-08T10:15:32;22.88;;;9.43;;
22449;SDS011;11392;57.390;-2.468;2023-04-08T10:23:02;25.25;;;9.57;;
22449;SDS011;11392;57.390;-2.468;2023-04-08T10:25:36;20.13;;;9.52;;
22449;SDS011;11392;57.390;-2.468;2023-04-08T10:30:46;20.73;;;9.70;;
22449;SDS011;11392;57.390;-2.468;2023-04-08T10:36:07;21.70;;;10.35;;
22449;SDS011;11392;57.390;-2.468;2023-04-08T10:38:37;24.15;;;9.60;;
22449;SDS011;11392;57.390;-2.468;2023-04-08T10:41:11;21.65;;;9.27;;
22449;SDS011;11392;57.390;-2.468;2023-04-08T10:43:47;28.13;;;10.40;;
22449;SDS011;11392;57.390;-2.468;2023-04-08T10:46:14;14.93;;;8.88;;
22449;SDS011;11392;57.390;-2.468;2023-04-08T10:48:42;27.17;;;10.90;;
22449;SDS011;11392;57.390;-2.468;2023-04-08T10:51:10;17.48;;;9.60;;
22449;SDS011;11392;57.390;-2.468;2023-04-08T10:53:37;19.98;;;9.35;;
22449;SDS011;11392;57.390;-2.468;2023-04-08T10:56:06;22.02;;;9.05;;
22449;SDS011;11392;57.390;-2.468;2023-04-08T10:58:34;19.05;;;8.90;;
22449;SDS011;11392;57.390;-2.468;2023-04-08T11:01:03;17.50;;;9.93;;
22449;SDS011;11392;57.390;-2.468;2023-04-08T11:03:32;15.95;;;8.80;;
22449;SDS011;11392;57.390;-2.468;2023-04-08T11:06:02;18.83;;;8.85;;
22449;SDS011;11392;57.390;-2.468;2023-04-08T11:08:29;16.08;;;7.82;;
22449;SDS011;11392;57.390;-2.468;2023-04-08T11:11:00;22.02;;;9.88;;
22449;SDS011;11392;57.390;-2.468;2023-04-08T11:13:28;15.55;;;8.88;;
22449;SDS011;11392;57.390;-2.468;2023-04-08T11:15:59;19.40;;;9.05;;
22449;SDS011;11392;57.390;-2.468;2023-04-08T11:18:28;16.73;;;8.68;;
22449;SDS011;11392;57.390;-2.468;2023-04-08T11:20:56;22.15;;;10.40;;
22449;SDS011;11392;57.390;-2.468;2023-04-08T11:23:25;19.02;;;8.05;;
22449;SDS011;11392;57.390;-2.468;2023-04-08T11:25:52;22.15;;;9.00;;
22449;SDS011;11392;57.390;-2.468;2023-04-08T11:28:20;17.42;;;8.75;;
22449;SDS011;11392;57.390;-2.468;2023-04-08T11:30:48;17.83;;;7.80;;
22449;SDS011;11392;57.390;-2.468;2023-04-08T11:33:16;15.50;;;8.00;;
22449;SDS011;11392;57.390;-2.468;2023-04-08T11:35:43;17.05;;;7.95;;
22449;SDS011;11392;57.390;-2.468;2023-04-08T11:38:10;17.80;;;7.88;;
22449;SDS011;11392;57.390;-2.468;2023-04-08T11:40:37;15.35;;;7.75;;
22449;SDS011;11392;57.390;-2.468;2023-04-08T11:43:11;15.50;;;8.05;;
22449;SDS011;11392;57.390;-2.468;2023-04-08T11:45:42;11.20;;;6.40;;
22449;SDS011;11392;57.390;-2.468;2023-04-08T11:48:10;13.77;;;7.03;;
22449;SDS011;11392;57.390;-2.468;2023-04-08T11:50:38;20.75;;;7.38;;
22449;SDS011;11392;57.390;-2.468;2023-04-08T11:53:19;12.48;;;5.78;;
22449;SDS011;11392;57.390;-2.468;2023-04-08T11:55:47;16.63;;;6.57;;
22449;SDS011;11392;57.390;-2.468;2023-04-08T11:58:15;11.48;;;5.70;;
22449;SDS011;11392;57.390;-2.468;2023-04-08T12:00:42;11.43;;;6.07;;
22449;SDS011;11392;57.390;-2.468;2023-04-08T12:03:11;10.32;;;6.30;;
22449;SDS011;11392;57.390;-2.468;2023-04-08T12:05:39;13.95;;;5.93;;
22449;SDS011;11392;57.390;-2.468;2023-04-08T12:08:06;13.13;;;6.10;;
22449;SDS011;11392;57.390;-2.468;2023-04-08T12:10:33;11.13;;;5.70;;
22449;SDS011;11392;57.390;-2.468;2023-04-08T12:13:00;13.48;;;6.43;;
22449;SDS011;11392;57.390;-2.468;2023-04-08T12:15:27;16.23;;;7.28;;
22449;SDS011;11392;57.390;-2.468;2023-04-08T12:17:54;11.38;;;5.80;;
22449;SDS011;11392;57.390;-2.468;2023-04-08T12:20:22;14.25;;;5.97;;
22449;SDS011;11392;57.390;-2.468;2023-04-08T12:22:48;11.10;;;5.20;;
22449;SDS011;11392;57.390;-2.468;2023-04-08T12:25:16;13.27;;;5.15;;
22449;SDS011;11392;57.390;-2.468;2023-04-08T12:27:43;14.02;;;5.45;;
22449;SDS011;11392;57.390;-2.468;2023-04-08T12:30:10;16.05;;;5.68;;
22449;SDS011;11392;57.390;-2.468;2023-04-08T12:32:38;13.85;;;5.72;;
22449;SDS011;11392;57.390;-2.468;2023-04-08T12:35:05;10.20;;;5.22;;
22449;SDS011;11392;57.390;-2.468;2023-04-08T12:37:32;9.05;;;4.90;;
22449;SDS011;11392;57.390;-2.468;2023-04-08T12:40:00;9.60;;;4.40;;
22449;SDS011;11392;57.390;-2.468;2023-04-08T12:42:27;8.30;;;4.40;;
22449;SDS011;11392;57.390;-2.468;2023-04-08T12:44:54;12.07;;;5.18;;
22449;SDS011;11392;57.390;-2.468;2023-04-08T12:47:21;11.00;;;4.65;;
22449;SDS011;11392;57.390;-2.468;2023-04-08T12:49:51;14.85;;;4.80;;
22449;SDS011;11392;57.390;-2.468;2023-04-08T12:52:18;13.45;;;5.20;;
22449;SDS011;11392;57.390;-2.468;2023-04-08T12:54:45;10.73;;;4.70;;
22449;SDS011;11392;57.390;-2.468;2023-04-08T12:57:12;12.48;;;5.25;;
22449;SDS011;11392;57.390;-2.468;2023-04-08T12:59:39;10.90;;;4.80;;
22449;SDS011;11392;57.390;-2.468;2023-04-08T13:02:06;11.10;;;4.88;;
22449;SDS011;11392;57.390;-2.468;2023-04-08T13:04:34;10.27;;;5.10;;
22449;SDS011;11392;57.390;-2.468;2023-04-08T13:07:01;17.52;;;5.70;;
22449;SDS011;11392;57.390;-2.468;2023-04-08T13:09:29;9.40;;;4.82;;
22449;SDS011;11392;57.390;-2.468;2023-04-08T13:11:56;15.63;;;5.22;;
22449;SDS011;11392;57.390;-2.468;2023-04-08T13:14:24;13.77;;;4.90;;
22449;SDS011;11392;57.390;-2.468;2023-04-08T13:16:51;13.00;;;5.70;;
22449;SDS011;11392;57.390;-2.468;2023-04-08T13:19:18;8.73;;;4.78;;
22449;SDS011;11392;57.390;-2.468;2023-04-08T13:21:45;10.80;;;4.70;;
22449;SDS011;11392;57.390;-2.468;2023-04-08T13:24:12;11.70;;;5.47;;
22449;SDS011;11392;57.390;-2.468;2023-04-08T13:26:39;11.00;;;5.43;;
22449;SDS011;11392;57.390;-2.468;2023-04-08T13:29:06;9.73;;;4.70;;
22449;SDS011;11392;57.390;-2.468;2023-04-08T13:31:33;14.25;;;6.07;;
22449;SDS011;11392;57.390;-2.468;2023-04-08T13:34:00;10.40;;;4.90;;
22449;SDS011;11392;57.390;-2.468;2023-04-08T13:36:27;14.02;;;5.15;;
22449;SDS011;11392;57.390;-2.468;2023-04-08T13:38:54;11.05;;;5.30;;
22449;SDS011;11392;57.390;-2.468;2023-04-08T13:41:22;9.82;;;5.45;;
22449;SDS011;11392;57.390;-2.468;2023-04-08T13:43:50;8.20;;;4.53;;
22449;SDS011;11392;57.390;-2.468;2023-04-08T13:46:17;9.82;;;4.97;;
22449;SDS011;11392;57.390;-2.468;2023-04-08T13:48:44;15.05;;;6.35;;
22449;SDS011;11392;57.390;-2.468;2023-04-08T13:51:12;6.05;;;4.95;;
22449;SDS011;11392;57.390;-2.468;2023-04-08T13:53:39;11.35;;;5.90;;
22449;SDS011;11392;57.390;-2.468;2023-04-08T13:56:06;9.32;;;6.22;;
22449;SDS011;11392;57.390;-2.468;2023-04-08T13:58:33;10.75;;;6.07;;
22449;SDS011;11392;57.390;-2.468;2023-04-08T14:01:00;12.30;;;5.50;;
22449;SDS011;11392;57.390;-2.468;2023-04-08T14:03:28;13.07;;;6.68;;
22449;SDS011;11392;57.390;-2.468;2023-04-08T14:05:55;10.15;;;6.35;;
22449;SDS011;11392;57.390;-2.468;2023-04-08T14:08:26;11.38;;;6.07;;
22449;SDS011;11392;57.390;-2.468;2023-04-08T14:10:57;10.00;;;6.82;;
22449;SDS011;11392;57.390;-2.468;2023-04-08T14:13:24;13.38;;;6.40;;
22449;SDS011;11392;57.390;-2.468;2023-04-08T14:15:51;10.27;;;6.07;;
22449;SDS011;11392;57.390;-2.468;2023-04-08T14:18:21;11.73;;;6.47;;
22449;SDS011;11392;57.390;-2.468;2023-04-08T14:20:48;11.57;;;6.05;;
22449;SDS011;11392;57.390;-2.468;2023-04-08T14:23:15;15.90;;;6.50;;
22449;SDS011;11392;57.390;-2.468;2023-04-08T14:25:42;11.70;;;5.97;;
22449;SDS011;11392;57.390;-2.468;2023-04-08T14:28:09;11.15;;;7.40;;
22449;SDS011;11392;57.390;-2.468;2023-04-08T14:30:36;12.88;;;6.07;;
22449;SDS011;11392;57.390;-2.468;2023-04-08T14:33:03;10.32;;;5.63;;
22449;SDS011;11392;57.390;-2.468;2023-04-08T14:35:31;11.20;;;6.20;;
22449;SDS011;11392;57.390;-2.468;2023-04-08T14:37:59;11.30;;;5.88;;
22449;SDS011;11392;57.390;-2.468;2023-04-08T14:40:26;11.90;;;6.53;;
22449;SDS011;11392;57.390;-2.468;2023-04-08T14:42:53;15.23;;;7.22;;
22449;SDS011;11392;57.390;-2.468;2023-04-08T14:45:20;12.38;;;6.75;;
22449;SDS011;11392;57.390;-2.468;2023-04-08T14:47:47;14.20;;;6.72;;